createdAt,value
2017-10-30T00:01:45.500Z,98493.22
2017-10-30T00:04:13.124Z,98494.38
2017-10-30T00:06:40.629Z,98506.38
2017-10-30T00:09:08.152Z,98505.52
2017-10-30T00:11:35.699Z,98504.70
2017-10-30T00:14:03.257Z,98506.92
2017-10-30T00:16:30.770Z,98515.50
2017-10-30T00:18:58.311Z,98520.34
2017-10-30T00:21:25.798Z,98529.00
2017-10-30T00:23:53.294Z,98519.94
2017-10-30T00:26:20.847Z,98526.59
2017-10-30T00:28:48.346Z,98521.94
2017-10-30T00:31:15.847Z,98527.11
2017-10-30T00:33:43.334Z,98521.13
2017-10-30T00:36:10.832Z,98525.16
2017-10-30T00:38:38.333Z,98523.42
2017-10-30T00:41:05.832Z,98532.22
2017-10-30T00:43:33.450Z,98531.89
2017-10-30T00:46:01.001Z,98537.34
2017-10-30T00:48:28.498Z,98538.66
2017-10-30T00:50:55.977Z,98531.41
2017-10-30T00:53:23.486Z,98532.13
2017-10-30T00:55:50.997Z,98532.62
2017-10-30T00:58:18.485Z,98540.37
2017-10-30T01:00:45.984Z,98545.45
2017-10-30T01:03:13.481Z,98540.39
2017-10-30T01:05:41.007Z,98552.63
2017-10-30T01:08:08.493Z,98549.25
2017-10-30T01:10:36.000Z,98559.16
2017-10-30T01:13:03.510Z,98560.78
2017-10-30T01:15:31.012Z,98553.08
2017-10-30T01:17:58.521Z,98557.88
2017-10-30T01:20:26.045Z,98562.13
2017-10-30T01:22:53.554Z,98554.42
2017-10-30T01:25:21.066Z,98549.73
2017-10-30T01:27:48.574Z,98555.17
2017-10-30T01:30:16.149Z,98554.16
2017-10-30T01:32:43.652Z,98552.73
2017-10-30T01:35:11.138Z,98553.59
2017-10-30T01:37:38.661Z,98551.03
2017-10-30T01:40:06.181Z,98558.67
2017-10-30T01:42:33.694Z,98553.63
2017-10-30T01:45:01.202Z,98554.16
2017-10-30T01:47:28.704Z,98552.57
2017-10-30T01:49:56.199Z,98560.78
2017-10-30T01:52:23.698Z,98555.82
2017-10-30T01:54:51.205Z,98554.53
2017-10-30T01:57:18.710Z,98555.48
2017-10-30T01:59:46.211Z,98558.61
2017-10-30T02:02:13.718Z,98556.92
2017-10-30T02:04:41.210Z,98562.53
2017-10-30T02:07:08.793Z,98562.20
2017-10-30T02:09:36.312Z,98567.92
2017-10-30T02:12:03.801Z,98568.81
2017-10-30T02:14:31.306Z,98578.53
2017-10-30T02:16:58.834Z,98572.11
2017-10-30T02:19:26.337Z,98577.94
2017-10-30T02:21:53.843Z,98576.51
2017-10-30T02:24:21.346Z,98572.77
2017-10-30T02:26:48.872Z,98572.44
2017-10-30T02:29:16.405Z,98575.63
2017-10-30T02:31:43.928Z,98572.96
2017-10-30T02:34:11.433Z,98585.10
2017-10-30T02:36:38.951Z,98588.38
2017-10-30T02:39:06.465Z,98583.45
2017-10-30T02:41:33.997Z,98587.39
2017-10-30T02:44:01.502Z,98593.06
2017-10-30T02:46:29.001Z,98597.31
2017-10-30T02:48:56.513Z,98593.15
2017-10-30T02:51:24.023Z,98593.02
2017-10-30T02:53:51.523Z,98613.27
2017-10-30T02:56:19.016Z,98606.39
2017-10-30T02:58:46.519Z,98610.55
2017-10-30T03:01:14.053Z,98612.94
2017-10-30T03:03:41.558Z,98615.08
2017-10-30T03:06:09.082Z,98618.48
2017-10-30T03:08:36.581Z,98626.40
2017-10-30T03:11:04.086Z,98624.30
2017-10-30T03:13:31.587Z,98628.78
2017-10-30T03:15:59.095Z,98629.65
2017-10-30T03:18:26.610Z,98636.47
2017-10-30T03:20:54.112Z,98638.77
2017-10-30T03:23:21.610Z,98635.48
2017-10-30T03:25:49.138Z,98639.77
2017-10-30T03:28:16.629Z,98635.01
2017-10-30T03:30:44.123Z,98638.81
2017-10-30T03:33:11.619Z,98642.56
2017-10-30T03:35:39.133Z,98640.31
2017-10-30T03:38:06.636Z,98649.89
2017-10-30T03:40:34.139Z,98640.39
2017-10-30T03:43:01.625Z,98651.72
2017-10-30T03:45:29.113Z,98650.98
2017-10-30T03:47:56.597Z,98656.48
2017-10-30T03:50:24.093Z,98654.11
2017-10-30T03:52:51.586Z,98659.87
2017-10-30T03:55:19.077Z,98661.88
2017-10-30T03:57:46.568Z,98666.30
2017-10-30T04:00:14.065Z,98668.90
2017-10-30T04:02:41.555Z,98660.14
2017-10-30T04:05:09.044Z,98661.76
2017-10-30T04:07:36.552Z,98669.95
2017-10-30T04:10:04.039Z,98667.89
2017-10-30T04:12:32.008Z,98670.81
2017-10-30T04:14:59.496Z,98674.50
2017-10-30T04:17:26.994Z,98679.05
2017-10-30T04:19:54.529Z,98676.27
2017-10-30T04:22:22.054Z,98679.18
2017-10-30T04:24:49.561Z,98684.78
2017-10-30T04:27:17.058Z,98677.45
2017-10-30T04:29:44.550Z,98683.44
2017-10-30T04:32:12.037Z,98684.42
2017-10-30T04:34:39.529Z,98681.38
2017-10-30T04:37:07.021Z,98681.05
2017-10-30T04:39:34.510Z,98684.06
2017-10-30T04:42:02.031Z,98686.66
2017-10-30T04:44:29.583Z,98690.26
2017-10-30T04:46:57.078Z,98689.29
2017-10-30T04:49:24.584Z,98696.28
2017-10-30T04:51:52.074Z,98697.28
2017-10-30T04:54:19.565Z,98689.78
2017-10-30T04:56:47.073Z,98691.99
2017-10-30T04:59:14.569Z,98697.87
2017-10-30T05:01:42.070Z,98704.41
2017-10-30T05:04:09.561Z,98697.91
2017-10-30T05:06:37.039Z,98700.63
2017-10-30T05:09:04.523Z,98698.98
2017-10-30T05:11:32.031Z,98699.64
2017-10-30T05:13:59.535Z,98698.17
2017-10-30T05:16:27.020Z,98700.83
2017-10-30T05:18:54.521Z,98694.11
2017-10-30T05:21:22.018Z,98710.70
2017-10-30T05:23:49.525Z,98713.41
2017-10-30T05:26:17.024Z,98720.95
2017-10-30T05:28:44.545Z,98717.88
2017-10-30T05:31:12.070Z,98722.89
2017-10-30T05:33:39.561Z,98716.88
2017-10-30T05:36:07.116Z,98725.27
2017-10-30T05:38:34.634Z,98729.39
2017-10-30T05:41:02.124Z,98728.05
2017-10-30T05:43:29.621Z,98741.84
2017-10-30T05:45:57.157Z,98739.97
2017-10-30T05:48:24.645Z,98745.25
2017-10-30T05:50:52.162Z,98735.38
2017-10-30T05:53:19.658Z,98739.15
2017-10-30T05:55:47.462Z,98740.98
2017-10-30T05:58:14.966Z,98747.05
2017-10-30T06:00:42.480Z,98745.94
2017-10-30T06:03:09.973Z,98750.14
2017-10-30T06:05:37.494Z,98748.56
2017-10-30T06:08:05.005Z,98758.59
2017-10-30T06:10:32.514Z,98763.14
2017-10-30T06:13:00.010Z,98762.16
2017-10-30T06:15:27.535Z,98769.09
2017-10-30T06:17:55.069Z,98761.56
2017-10-30T06:20:22.621Z,98772.41
2017-10-30T06:22:50.141Z,98772.22
2017-10-30T06:25:17.672Z,98781.67
2017-10-30T06:27:45.182Z,98781.89
2017-10-30T06:30:12.706Z,98785.25
2017-10-30T06:32:40.218Z,98795.45
2017-10-30T06:35:07.743Z,98797.95
2017-10-30T06:37:35.242Z,98808.59
2017-10-30T06:40:02.747Z,98811.50
2017-10-30T06:42:30.241Z,98812.70
2017-10-30T06:44:57.765Z,98816.81
2017-10-30T06:47:25.292Z,98821.97
2017-10-30T06:49:52.818Z,98825.11
2017-10-30T06:52:20.315Z,98823.08
2017-10-30T06:54:47.822Z,98822.50
2017-10-30T06:57:15.308Z,98826.58
2017-10-30T06:59:42.801Z,98832.19
2017-10-30T07:02:22.154Z,98835.85
2017-10-30T07:04:49.641Z,98836.83
2017-10-30T07:07:17.127Z,98831.23
2017-10-30T07:09:44.625Z,98838.69
2017-10-30T07:12:12.122Z,98844.88
2017-10-30T07:14:39.658Z,98846.91
2017-10-30T07:17:07.159Z,98850.15
2017-10-30T07:19:34.680Z,98851.34
2017-10-30T07:22:02.190Z,98859.09
2017-10-30T07:24:29.709Z,98860.25
2017-10-30T07:26:57.197Z,98857.89
2017-10-30T07:29:24.716Z,98859.63
2017-10-30T07:31:52.207Z,98869.09
2017-10-30T07:34:19.688Z,98869.41
2017-10-30T07:36:47.174Z,98869.98
2017-10-30T07:39:14.674Z,98869.41
2017-10-30T07:41:42.178Z,98879.76
2017-10-30T07:44:09.714Z,98878.24
2017-10-30T07:46:37.260Z,98875.67
2017-10-30T07:49:04.750Z,98875.56
2017-10-30T07:51:32.254Z,98876.25
2017-10-30T07:53:59.746Z,98876.50
2017-10-30T07:56:27.247Z,98882.63
2017-10-30T07:58:54.765Z,98880.80
2017-10-30T08:01:22.295Z,98877.09
2017-10-30T08:03:49.802Z,98874.16
2017-10-30T08:06:17.371Z,98868.28
2017-10-30T08:08:44.913Z,98884.41
2017-10-30T08:11:12.425Z,98879.42
2017-10-30T08:13:39.925Z,98883.13
2017-10-30T08:16:07.426Z,98881.14
2017-10-30T08:18:34.937Z,98892.81
2017-10-30T08:21:02.414Z,98890.15
2017-10-30T08:23:29.922Z,98883.40
2017-10-30T08:25:57.423Z,98888.34
2017-10-30T08:28:24.936Z,98888.91
2017-10-30T08:30:52.487Z,98882.45
2017-10-30T08:33:20.032Z,98883.79
2017-10-30T08:35:47.521Z,98878.41
2017-10-30T08:38:16.475Z,98883.55
2017-10-30T08:41:01.205Z,98885.27
2017-10-30T08:43:28.742Z,98878.98
2017-10-30T08:45:56.256Z,98880.00
2017-10-30T08:48:23.769Z,98868.14
2017-10-30T08:50:51.267Z,98870.33
2017-10-30T08:53:18.777Z,98875.03
2017-10-30T08:55:46.298Z,98883.50
2017-10-30T08:58:13.809Z,98886.77
2017-10-30T09:00:41.323Z,98882.99
2017-10-30T09:03:08.823Z,98891.34
2017-10-30T09:05:36.357Z,98885.23
2017-10-30T09:08:03.871Z,98887.95
2017-10-30T09:10:31.365Z,98886.81
2017-10-30T09:12:58.857Z,98890.81
2017-10-30T09:15:26.374Z,98883.77
2017-10-30T09:17:54.030Z,98890.01
2017-10-30T09:20:21.797Z,98893.23
2017-10-30T09:22:49.302Z,98897.53
2017-10-30T09:25:16.829Z,98898.25
2017-10-30T09:27:44.331Z,98899.64
2017-10-30T09:30:11.878Z,98898.66
2017-10-30T09:32:39.403Z,98898.52
2017-10-30T09:35:06.892Z,98891.83
2017-10-30T09:37:45.109Z,98898.46
2017-10-30T09:42:54.615Z,98897.82
2017-10-30T09:49:53.451Z,98905.56
2017-10-30T09:52:21.109Z,98899.88
2017-10-30T09:54:48.618Z,98907.51
2017-10-30T09:57:16.153Z,98909.39
2017-10-30T09:59:43.707Z,98923.30
2017-10-30T10:02:11.205Z,98915.96
2017-10-30T10:04:38.737Z,98920.20
2017-10-30T10:07:06.266Z,98919.55
2017-10-30T10:09:33.778Z,98916.86
2017-10-30T10:12:01.290Z,98914.77
2017-10-30T10:14:28.837Z,98918.14
2017-10-30T10:16:56.355Z,98912.74
2017-10-30T10:19:23.968Z,98916.31
2017-10-30T10:21:51.489Z,98917.16
2017-10-30T10:24:19.018Z,98913.03
2017-10-30T10:26:46.519Z,98915.49
2017-10-30T10:29:14.007Z,98917.22
2017-10-30T10:31:41.530Z,98918.36
2017-10-30T10:34:09.013Z,98920.61
2017-10-30T10:36:36.523Z,98922.81
2017-10-30T10:39:04.022Z,98914.39
2017-10-30T10:41:31.518Z,98919.42
2017-10-30T10:43:59.032Z,98912.14
2017-10-30T10:46:26.591Z,98915.30
2017-10-30T10:48:54.097Z,98911.16
2017-10-30T10:51:21.593Z,98911.44
2017-10-30T10:53:49.100Z,98907.41
2017-10-30T10:56:16.617Z,98907.16
2017-10-30T10:58:44.193Z,98910.95
2017-10-30T11:01:11.731Z,98908.86
2017-10-30T11:03:39.228Z,98912.46
2017-10-30T11:06:06.789Z,98911.17
2017-10-30T11:08:34.289Z,98904.91
2017-10-30T11:11:01.797Z,98911.25
2017-10-30T11:13:29.313Z,98913.25
2017-10-30T11:15:56.801Z,98909.73
2017-10-30T11:18:24.306Z,98916.45
2017-10-30T11:20:51.805Z,98915.83
2017-10-30T11:23:19.323Z,98914.33
2017-10-30T11:25:46.824Z,98906.80
2017-10-30T11:28:14.365Z,98912.19
2017-10-30T11:30:41.874Z,98908.84
2017-10-30T11:33:09.370Z,98912.25
2017-10-30T11:35:36.866Z,98908.33
2017-10-30T11:38:04.357Z,98906.20
2017-10-30T11:40:31.890Z,98897.21
2017-10-30T11:42:59.382Z,98900.23
2017-10-30T11:45:26.946Z,98903.20
2017-10-30T11:47:54.454Z,98898.19
2017-10-30T11:50:22.013Z,98910.80
2017-10-30T11:52:49.509Z,98909.48
2017-10-30T11:55:16.995Z,98907.56
2017-10-30T11:57:44.634Z,98906.19
2017-10-30T12:00:12.149Z,98898.92
2017-10-30T12:02:39.723Z,98894.81
2017-10-30T12:05:07.273Z,98898.84
2017-10-30T12:07:34.782Z,98901.16
2017-10-30T12:10:02.359Z,98902.84
2017-10-30T12:12:29.932Z,98902.91
2017-10-30T12:14:57.441Z,98908.03
2017-10-30T12:17:25.014Z,98911.81
2017-10-30T12:19:52.517Z,98906.09
2017-10-30T12:22:20.038Z,98904.91
2017-10-30T12:24:47.579Z,98904.25
2017-10-30T12:27:15.121Z,98902.17
2017-10-30T12:29:42.639Z,98906.18
2017-10-30T12:32:10.158Z,98903.22
2017-10-30T12:34:37.650Z,98907.78
2017-10-30T12:37:05.153Z,98912.72
2017-10-30T12:39:32.671Z,98911.52
2017-10-30T12:42:00.179Z,98910.92
2017-10-30T12:44:28.102Z,98910.72
2017-10-30T12:46:55.599Z,98916.66
2017-10-30T12:49:23.135Z,98914.41
2017-10-30T12:51:50.638Z,98913.52
2017-10-30T12:54:18.157Z,98914.62
2017-10-30T12:56:45.662Z,98916.09
2017-10-30T12:59:13.158Z,98908.16
2017-10-30T13:01:40.678Z,98910.59
2017-10-30T13:04:08.168Z,98915.66
2017-10-30T13:06:35.658Z,98916.34
2017-10-30T13:09:03.169Z,98914.97
2017-10-30T13:11:30.682Z,98921.67
2017-10-30T13:13:58.297Z,98927.77
2017-10-30T13:16:25.916Z,98927.72
2017-10-30T13:18:53.414Z,98924.86
2017-10-30T13:21:20.938Z,98931.78
2017-10-30T13:23:48.491Z,98934.33
2017-10-30T13:26:15.987Z,98929.06
2017-10-30T13:28:43.507Z,98930.73
2017-10-30T13:31:11.044Z,98933.44
2017-10-30T13:33:38.619Z,98933.37
2017-10-30T13:36:06.125Z,98934.42
2017-10-30T13:38:33.640Z,98922.20
2017-10-30T13:41:01.158Z,98931.06
2017-10-30T13:43:28.680Z,98932.56
2017-10-30T13:46:03.344Z,98933.11
2017-10-30T13:48:30.862Z,98940.23
2017-10-30T13:51:19.706Z,98941.44
2017-10-30T13:53:47.227Z,98940.27
2017-10-30T13:56:15.148Z,98944.42
2017-10-30T13:58:42.768Z,98938.03
2017-10-30T14:01:10.284Z,98945.84
2017-10-30T14:03:37.834Z,98941.39
2017-10-30T14:06:05.334Z,98938.62
2017-10-30T14:08:32.853Z,98941.05
2017-10-30T14:11:00.403Z,98949.49
2017-10-30T14:13:27.893Z,98953.36
2017-10-30T14:15:55.418Z,98947.81
2017-10-30T14:18:22.916Z,98947.81
2017-10-30T14:20:50.438Z,98952.55
2017-10-30T14:23:17.947Z,98949.02
2017-10-30T14:25:45.507Z,98949.58
2017-10-30T14:28:13.000Z,98956.08
2017-10-30T14:30:40.501Z,98959.50
2017-10-30T14:33:07.996Z,98961.64
2017-10-30T14:35:35.548Z,98962.33
2017-10-30T14:38:03.053Z,98966.80
2017-10-30T14:40:30.606Z,98965.33
2017-10-30T14:42:58.130Z,98971.53
2017-10-30T14:45:25.654Z,98974.74
2017-10-30T14:47:53.193Z,98974.77
2017-10-30T14:50:20.757Z,98973.00
2017-10-30T14:52:48.266Z,98972.45
2017-10-30T14:55:15.767Z,98969.88
2017-10-30T14:57:43.314Z,98979.05
2017-10-30T15:00:10.814Z,98975.56
2017-10-30T15:02:51.534Z,98983.69
2017-10-30T15:05:19.092Z,98981.92
2017-10-30T15:07:53.195Z,98978.13
2017-10-30T15:10:20.719Z,98981.61
2017-10-30T15:12:48.252Z,98984.70
2017-10-30T15:15:15.767Z,98993.16
2017-10-30T15:17:43.251Z,98991.27
2017-10-30T15:20:10.750Z,98990.30
2017-10-30T15:22:38.266Z,98987.86
2017-10-30T15:25:05.785Z,98989.21
2017-10-30T15:27:33.333Z,98981.64
2017-10-30T15:30:00.847Z,98983.68
2017-10-30T15:32:28.362Z,98979.69
2017-10-30T15:34:55.881Z,98986.54
2017-10-30T15:37:23.381Z,98984.97
2017-10-30T15:39:51.125Z,98992.53
2017-10-30T15:42:18.705Z,98993.74
2017-10-30T15:44:46.292Z,98997.82
2017-10-30T15:47:13.864Z,98999.72
2017-10-30T15:49:41.371Z,98995.44
2017-10-30T15:52:08.893Z,98997.74
2017-10-30T15:54:36.400Z,98999.95
2017-10-30T15:57:03.922Z,98997.37
2017-10-30T15:59:31.468Z,99004.20
2017-10-30T16:01:58.994Z,99002.23
2017-10-30T16:04:26.490Z,99006.72
2017-10-30T16:06:54.004Z,99003.03
2017-10-30T16:09:21.556Z,99019.16
2017-10-30T16:11:49.078Z,99019.47
2017-10-30T16:14:16.590Z,99017.02
2017-10-30T16:16:44.113Z,99013.22
2017-10-30T16:19:11.654Z,99019.95
2017-10-30T16:21:39.179Z,99022.52
2017-10-30T16:24:06.707Z,99030.49
2017-10-30T16:26:34.225Z,99034.70
2017-10-30T16:29:01.724Z,99035.83
2017-10-30T16:31:29.222Z,99041.66
2017-10-30T16:33:56.727Z,99040.79
2017-10-30T16:36:24.239Z,99050.06
2017-10-30T16:38:51.766Z,99057.80
2017-10-30T16:41:19.297Z,99059.08
2017-10-30T16:43:46.818Z,99064.61
2017-10-30T16:46:14.357Z,99063.74
2017-10-30T16:48:41.864Z,99072.41
2017-10-30T16:51:09.361Z,99071.06
2017-10-30T16:53:36.861Z,99079.84
2017-10-30T16:56:04.365Z,99084.20
2017-10-30T16:58:31.885Z,99089.81
2017-10-30T17:00:59.395Z,99092.50
2017-10-30T17:03:26.992Z,99094.94
2017-10-30T17:05:54.513Z,99093.09
2017-10-30T17:08:22.017Z,99095.34
2017-10-30T17:10:49.557Z,99097.58
2017-10-30T17:13:17.078Z,99099.44
2017-10-30T17:15:44.585Z,99106.63
2017-10-30T17:18:12.122Z,99103.08
2017-10-30T17:20:39.653Z,99108.16
2017-10-30T17:23:07.173Z,99102.97
2017-10-30T17:34:40.652Z,99108.02
2017-10-30T17:37:08.157Z,99112.14
2017-10-30T17:39:35.654Z,99111.14
2017-10-30T17:42:03.171Z,99117.74
2017-10-30T17:44:30.665Z,99120.73
2017-10-30T17:46:58.185Z,99119.89
2017-10-30T17:49:25.698Z,99122.91
2017-10-30T17:51:53.205Z,99132.53
2017-10-30T17:54:20.750Z,99132.13
2017-10-30T17:56:48.250Z,99129.20
2017-10-30T17:59:16.705Z,99139.06
2017-10-30T18:01:44.222Z,99132.48
2017-10-30T18:04:11.754Z,99142.11
2017-10-30T18:06:39.250Z,99136.97
2017-10-30T18:09:06.767Z,99139.27
2017-10-30T18:11:34.274Z,99132.36
2017-10-30T18:14:01.829Z,99138.63
2017-10-30T18:16:29.369Z,99135.04
2017-10-30T18:18:56.875Z,99139.09
2017-10-30T18:21:24.359Z,99141.47
2017-10-30T18:23:51.858Z,99138.55
2017-10-30T18:26:19.362Z,99142.20
2017-10-30T18:28:46.868Z,99143.53
2017-10-30T18:31:14.381Z,99149.23
2017-10-30T18:33:41.886Z,99145.63
2017-10-30T18:36:09.405Z,99152.34
2017-10-30T18:38:36.908Z,99149.97
2017-10-30T18:41:04.434Z,99156.09
2017-10-30T18:43:31.942Z,99164.66
2017-10-30T18:45:59.479Z,99163.45
2017-10-30T18:48:27.019Z,99162.20
2017-10-30T18:50:54.587Z,99165.73
2017-10-30T18:53:22.080Z,99174.96
2017-10-30T18:55:49.590Z,99168.71
2017-10-30T18:58:17.079Z,99167.97
2017-10-30T19:00:44.590Z,99166.57
2017-10-30T19:03:12.102Z,99164.64
2017-10-30T19:05:39.603Z,99167.00
2017-10-30T19:08:07.125Z,99166.61
2017-10-30T19:10:34.651Z,99167.97
2017-10-30T19:13:02.150Z,99167.56
2017-10-30T19:15:29.653Z,99162.87
2017-10-30T19:17:57.270Z,99165.88
2017-10-30T19:20:24.798Z,99165.55
2017-10-30T19:22:52.312Z,99167.63
2017-10-30T19:25:19.818Z,99175.62
2017-10-30T19:27:47.365Z,99167.77
2017-10-30T19:30:14.866Z,99175.75
2017-10-30T19:32:42.391Z,99172.86
2017-10-30T19:35:09.886Z,99183.94
2017-10-30T19:37:37.404Z,99178.86
2017-10-30T19:40:04.910Z,99186.86
2017-10-30T19:42:32.436Z,99188.66
2017-10-30T19:44:59.927Z,99190.92
2017-10-30T19:47:27.433Z,99188.30
2017-10-30T19:49:54.951Z,99191.33
2017-10-30T19:52:22.493Z,99199.23
2017-10-30T19:54:50.011Z,99188.70
2017-10-30T19:57:17.664Z,99193.80
2017-10-30T19:59:45.250Z,99193.40
2017-10-30T20:02:12.783Z,99193.17
2017-10-30T20:04:40.351Z,99201.84
2017-10-30T20:07:13.653Z,99207.34
2017-10-30T20:09:47.119Z,99206.66
2017-10-30T20:12:20.664Z,99218.13
2017-10-30T20:14:48.618Z,99216.05
2017-10-30T20:17:16.587Z,99213.47
2017-10-30T20:19:44.452Z,99207.72
2017-10-30T20:22:12.321Z,99206.80
2017-10-30T20:24:40.187Z,99210.58
2017-10-30T20:27:08.157Z,99213.77
2017-10-30T20:29:36.120Z,99213.02
2017-10-30T20:32:04.089Z,99215.28
2017-10-30T20:34:32.164Z,99208.37
2017-10-30T20:37:00.131Z,99223.15
2017-10-30T20:39:28.111Z,99217.71
2017-10-30T20:41:56.065Z,99218.77
2017-10-30T20:44:24.034Z,99221.00
2017-10-30T20:46:52.003Z,99218.13
2017-10-30T20:49:19.984Z,99209.94
2017-10-30T20:51:47.953Z,99215.17
2017-10-30T20:54:15.806Z,99216.44
2017-10-30T20:56:43.772Z,99216.73
2017-10-30T20:59:11.640Z,99219.30
2017-10-30T21:01:39.616Z,99225.34
2017-10-30T21:04:07.475Z,99221.34
2017-10-30T21:06:35.349Z,99224.11
2017-10-30T21:09:03.290Z,99219.30
2017-10-30T21:11:31.176Z,99225.03
2017-10-30T21:13:59.043Z,99219.41
2017-10-30T21:16:27.129Z,99222.80
2017-10-30T21:18:55.299Z,99224.22
2017-10-30T21:21:23.119Z,99220.52
2017-10-30T21:23:51.030Z,99217.06
2017-10-30T21:26:19.120Z,99222.16
2017-10-30T21:28:47.056Z,99217.55
2017-10-30T21:31:14.921Z,99220.75
2017-10-30T21:33:42.563Z,99217.27
2017-10-30T21:36:10.107Z,99212.97
2017-10-30T21:38:37.618Z,99212.84
2017-10-30T21:41:05.137Z,99211.00
2017-10-30T21:43:32.651Z,99209.88
2017-10-30T21:46:00.164Z,99206.19
2017-10-30T21:48:27.685Z,99206.72
2017-10-30T21:50:55.190Z,99204.66
2017-10-30T21:53:22.732Z,99201.90
2017-10-30T21:55:50.221Z,99191.38
2017-10-30T21:58:17.729Z,99198.30
2017-10-30T22:00:45.236Z,99193.58
2017-10-30T22:03:12.755Z,99197.99
2017-10-30T22:05:40.283Z,99199.33
2017-10-30T22:08:07.810Z,99201.44
2017-10-30T22:10:35.333Z,99194.39
2017-10-30T22:13:02.835Z,99194.99
2017-10-30T22:15:30.356Z,99201.13
2017-10-30T22:18:01.653Z,99202.64
2017-10-30T22:20:29.260Z,99207.08
2017-10-30T22:22:57.045Z,99200.30
2017-10-30T22:25:24.570Z,99194.77
2017-10-30T22:27:52.217Z,99196.31
2017-10-30T22:30:19.826Z,99203.59
2017-10-30T22:32:47.367Z,99207.56
2017-10-30T22:35:14.879Z,99207.73
2017-10-30T22:37:42.373Z,99203.95
2017-10-30T22:40:09.926Z,99210.06
2017-10-30T22:42:37.454Z,99202.78
2017-10-30T22:45:04.982Z,99199.52
2017-10-30T22:47:32.505Z,99200.34
2017-10-30T22:50:00.015Z,99200.56
2017-10-30T22:52:27.512Z,99198.19
2017-10-30T22:54:55.093Z,99197.75
2017-10-30T22:57:22.591Z,99194.41
2017-10-30T22:59:50.102Z,99195.63
2017-10-30T23:02:17.598Z,99195.39
2017-10-30T23:04:45.113Z,99195.65
2017-10-30T23:07:12.624Z,99189.38
2017-10-30T23:09:40.131Z,99192.14
2017-10-30T23:12:07.627Z,99192.23
2017-10-30T23:14:35.127Z,99186.60
2017-10-30T23:17:02.633Z,99184.67
2017-10-30T23:19:30.153Z,99182.30
2017-10-30T23:21:57.661Z,99180.86
2017-10-30T23:24:25.174Z,99181.61
2017-10-30T23:26:52.699Z,99183.27
2017-10-30T23:29:20.203Z,99182.53
2017-10-30T23:31:47.687Z,99182.70
2017-10-30T23:34:15.193Z,99173.80
2017-10-30T23:36:42.779Z,99176.19
2017-10-30T23:39:10.272Z,99188.89
2017-10-30T23:41:37.769Z,99182.25
2017-10-30T23:44:05.277Z,99176.49
2017-10-30T23:46:32.774Z,99181.16
2017-10-30T23:49:00.298Z,99182.59
2017-10-30T23:51:27.855Z,99180.48
2017-10-30T23:53:55.384Z,99179.38
2017-10-30T23:56:22.897Z,99172.86
2017-10-30T23:58:50.406Z,99187.77
